sensor_id;sensor_type;location;lat;lon;timestamp;P1;durP1;ratioP1;P2;durP2;ratioP2
22603;SDS011;11469;49.024;8.246;2023-03-29T00:01:06;5.07;;;2.45;;
22603;SDS011;11469;49.024;8.246;2023-03-29T00:03:34;5.07;;;2.35;;
22603;SDS011;11469;49.024;8.246;2023-03-29T00:06:00;5.28;;;3.03;;
22603;SDS011;11469;49.024;8.246;2023-03-29T00:08:30;5.32;;;2.58;;
22603;SDS011;11469;49.024;8.246;2023-03-29T00:10:58;7.68;;;2.60;;
22603;SDS011;11469;49.024;8.246;2023-03-29T00:13:24;4.80;;;2.50;;
22603;SDS011;11469;49.024;8.246;2023-03-29T00:15:50;8.30;;;2.40;;
22603;SDS011;11469;49.024;8.246;2023-03-29T00:18:16;5.85;;;2.05;;
22603;SDS011;11469;49.024;8.246;2023-03-29T00:20:42;6.63;;;2.63;;
22603;SDS011;11469;49.024;8.246;2023-03-29T00:23:07;7.72;;;2.97;;
22603;SDS011;11469;49.024;8.246;2023-03-29T00:25:33;13.18;;;3.15;;
22603;SDS011;11469;49.024;8.246;2023-03-29T00:27:58;9.50;;;2.75;;
22603;SDS011;11469;49.024;8.246;2023-03-29T00:30:23;3.92;;;2.30;;
22603;SDS011;11469;49.024;8.246;2023-03-29T00:32:49;9.48;;;2.85;;
22603;SDS011;11469;49.024;8.246;2023-03-29T00:35:15;4.95;;;2.33;;
22603;SDS011;11469;49.024;8.246;2023-03-29T00:37:41;8.18;;;3.03;;
22603;SDS011;11469;49.024;8.246;2023-03-29T00:40:07;8.80;;;3.28;;
22603;SDS011;11469;49.024;8.246;2023-03-29T00:42:36;6.05;;;3.15;;
22603;SDS011;11469;49.024;8.246;2023-03-29T00:47:42;5.32;;;3.10;;
22603;SDS011;11469;49.024;8.246;2023-03-29T00:50:22;5.78;;;2.55;;
22603;SDS011;11469;49.024;8.246;2023-03-29T00:52:56;4.30;;;1.95;;
22603;SDS011;11469;49.024;8.246;2023-03-29T00:55:28;4.50;;;2.10;;
22603;SDS011;11469;49.024;8.246;2023-03-29T00:57:58;6.00;;;2.13;;
22603;SDS011;11469;49.024;8.246;2023-03-29T01:00:30;4.53;;;1.88;;
22603;SDS011;11469;49.024;8.246;2023-03-29T01:03:00;4.47;;;1.80;;
22603;SDS011;11469;49.024;8.246;2023-03-29T01:05:36;2.75;;;1.98;;
22603;SDS011;11469;49.024;8.246;2023-03-29T01:08:07;5.55;;;1.52;;
22603;SDS011;11469;49.024;8.246;2023-03-29T01:10:49;2.50;;;1.73;;
22603;SDS011;11469;49.024;8.246;2023-03-29T01:13:21;6.50;;;2.28;;
22603;SDS011;11469;49.024;8.246;2023-03-29T01:15:52;7.90;;;2.20;;
22603;SDS011;11469;49.024;8.246;2023-03-29T01:18:19;5.13;;;2.55;;
22603;SDS011;11469;49.024;8.246;2023-03-29T01:31:26;3.30;;;2.05;;
22603;SDS011;11469;49.024;8.246;2023-03-29T01:33:57;5.55;;;2.33;;
22603;SDS011;11469;49.024;8.246;2023-03-29T01:36:32;8.00;;;3.72;;
22603;SDS011;11469;49.024;8.246;2023-03-29T01:39:04;5.32;;;2.78;;
22603;SDS011;11469;49.024;8.246;2023-03-29T01:41:42;4.03;;;2.30;;
22603;SDS011;11469;49.024;8.246;2023-03-29T01:44:11;13.18;;;4.03;;
22603;SDS011;11469;49.024;8.246;2023-03-29T01:46:51;5.20;;;2.45;;
22603;SDS011;11469;49.024;8.246;2023-03-29T01:49:31;3.20;;;1.58;;
22603;SDS011;11469;49.024;8.246;2023-03-29T01:52:02;10.65;;;2.95;;
22603;SDS011;11469;49.024;8.246;2023-03-29T01:54:33;8.80;;;2.30;;
22603;SDS011;11469;49.024;8.246;2023-03-29T01:57:03;9.00;;;3.00;;
22603;SDS011;11469;49.024;8.246;2023-03-29T01:59:32;4.25;;;2.20;;
22603;SDS011;11469;49.024;8.246;2023-03-29T02:02:02;3.10;;;2.10;;
22603;SDS011;11469;49.024;8.246;2023-03-29T02:04:36;5.72;;;1.83;;
22603;SDS011;11469;49.024;8.246;2023-03-29T02:07:05;4.10;;;2.10;;
22603;SDS011;11469;49.024;8.246;2023-03-29T02:09:32;4.07;;;1.80;;
22603;SDS011;11469;49.024;8.246;2023-03-29T02:12:01;5.93;;;2.33;;
22603;SDS011;11469;49.024;8.246;2023-03-29T02:14:28;5.32;;;2.10;;
22603;SDS011;11469;49.024;8.246;2023-03-29T02:16:54;20.42;;;4.15;;
22603;SDS011;11469;49.024;8.246;2023-03-29T02:19:20;4.55;;;1.80;;
22603;SDS011;11469;49.024;8.246;2023-03-29T02:21:51;5.38;;;2.28;;
22603;SDS011;11469;49.024;8.246;2023-03-29T02:24:25;4.72;;;2.03;;
22603;SDS011;11469;49.024;8.246;2023-03-29T02:26:56;3.75;;;1.70;;
22603;SDS011;11469;49.024;8.246;2023-03-29T02:29:23;7.32;;;2.13;;
22603;SDS011;11469;49.024;8.246;2023-03-29T02:31:50;4.38;;;1.88;;
22603;SDS011;11469;49.024;8.246;2023-03-29T02:37:08;4.68;;;2.20;;
22603;SDS011;11469;49.024;8.246;2023-03-29T02:39:37;5.80;;;1.80;;
22603;SDS011;11469;49.024;8.246;2023-03-29T02:42:05;5.40;;;2.38;;
22603;SDS011;11469;49.024;8.246;2023-03-29T02:44:32;5.80;;;2.42;;
22603;SDS011;11469;49.024;8.246;2023-03-29T02:47:03;7.43;;;1.95;;
22603;SDS011;11469;49.024;8.246;2023-03-29T02:49:34;4.22;;;1.83;;
22603;SDS011;11469;49.024;8.246;2023-03-29T02:52:05;4.15;;;2.15;;
22603;SDS011;11469;49.024;8.246;2023-03-29T02:54:34;8.45;;;3.28;;
22603;SDS011;11469;49.024;8.246;2023-03-29T02:57:02;6.88;;;2.30;;
22603;SDS011;11469;49.024;8.246;2023-03-29T02:59:32;4.85;;;2.40;;
22603;SDS011;11469;49.024;8.246;2023-03-29T03:01:58;6.20;;;2.38;;
22603;SDS011;11469;49.024;8.246;2023-03-29T03:04:24;6.25;;;2.45;;
22603;SDS011;11469;49.024;8.246;2023-03-29T03:06:50;5.28;;;2.70;;
22603;SDS011;11469;49.024;8.246;2023-03-29T03:09:16;7.82;;;3.10;;
22603;SDS011;11469;49.024;8.246;2023-03-29T03:11:41;9.77;;;3.28;;
22603;SDS011;11469;49.024;8.246;2023-03-29T03:14:07;6.18;;;2.75;;
22603;SDS011;11469;49.024;8.246;2023-03-29T03:16:32;3.13;;;1.90;;
22603;SDS011;11469;49.024;8.246;2023-03-29T03:18:58;4.72;;;2.70;;
22603;SDS011;11469;49.024;8.246;2023-03-29T03:21:25;9.68;;;2.53;;
22603;SDS011;11469;49.024;8.246;2023-03-29T03:23:52;16.38;;;4.15;;
22603;SDS011;11469;49.024;8.246;2023-03-29T03:26:18;8.88;;;3.47;;
22603;SDS011;11469;49.024;8.246;2023-03-29T03:28:51;5.85;;;2.47;;
22603;SDS011;11469;49.024;8.246;2023-03-29T03:31:16;5.28;;;3.33;;
22603;SDS011;11469;49.024;8.246;2023-03-29T03:33:43;5.03;;;2.38;;
22603;SDS011;11469;49.024;8.246;2023-03-29T03:36:09;3.75;;;2.50;;
22603;SDS011;11469;49.024;8.246;2023-03-29T03:38:35;4.80;;;2.60;;
22603;SDS011;11469;49.024;8.246;2023-03-29T03:41:02;11.43;;;3.08;;
22603;SDS011;11469;49.024;8.246;2023-03-29T03:43:29;6.43;;;3.08;;
22603;SDS011;11469;49.024;8.246;2023-03-29T03:45:54;7.57;;;3.17;;
22603;SDS011;11469;49.024;8.246;2023-03-29T03:48:20;6.07;;;2.92;;
22603;SDS011;11469;49.024;8.246;2023-03-29T03:50:54;6.25;;;3.20;;
22603;SDS011;11469;49.024;8.246;2023-03-29T03:53:21;4.90;;;2.80;;
22603;SDS011;11469;49.024;8.246;2023-03-29T03:55:48;6.85;;;2.95;;
22603;SDS011;11469;49.024;8.246;2023-03-29T03:58:17;6.78;;;3.67;;
22603;SDS011;11469;49.024;8.246;2023-03-29T04:00:43;7.43;;;3.33;;
22603;SDS011;11469;49.024;8.246;2023-03-29T04:03:12;6.32;;;3.33;;
22603;SDS011;11469;49.024;8.246;2023-03-29T04:05:41;9.32;;;3.55;;
22603;SDS011;11469;49.024;8.246;2023-03-29T04:08:09;6.82;;;2.85;;
22603;SDS011;11469;49.024;8.246;2023-03-29T04:10:36;7.45;;;3.13;;
22603;SDS011;11469;49.024;8.246;2023-03-29T04:13:02;11.85;;;3.05;;
22603;SDS011;11469;49.024;8.246;2023-03-29T04:15:31;6.60;;;2.85;;
22603;SDS011;11469;49.024;8.246;2023-03-29T04:17:58;10.60;;;3.75;;
22603;SDS011;11469;49.024;8.246;2023-03-29T04:20:24;9.82;;;3.95;;
22603;SDS011;11469;49.024;8.246;2023-03-29T04:22:51;12.77;;;2.85;;
22603;SDS011;11469;49.024;8.246;2023-03-29T04:25:16;3.67;;;2.40;;
22603;SDS011;11469;49.024;8.246;2023-03-29T04:27:43;8.15;;;2.97;;
22603;SDS011;11469;49.024;8.246;2023-03-29T04:30:09;5.53;;;2.55;;
22603;SDS011;11469;49.024;8.246;2023-03-29T04:32:36;8.75;;;3.67;;
22603;SDS011;11469;49.024;8.246;2023-03-29T04:35:01;9.50;;;2.97;;
22603;SDS011;11469;49.024;8.246;2023-03-29T04:37:28;5.93;;;2.78;;
22603;SDS011;11469;49.024;8.246;2023-03-29T04:39:55;8.30;;;3.85;;
22603;SDS011;11469;49.024;8.246;2023-03-29T04:42:21;9.95;;;3.85;;
22603;SDS011;11469;49.024;8.246;2023-03-29T04:44:47;8.55;;;3.85;;
22603;SDS011;11469;49.024;8.246;2023-03-29T04:47:12;7.68;;;4.65;;
22603;SDS011;11469;49.024;8.246;2023-03-29T04:49:39;9.85;;;4.82;;
22603;SDS011;11469;49.024;8.246;2023-03-29T04:52:05;7.03;;;4.13;;
22603;SDS011;11469;49.024;8.246;2023-03-29T04:54:30;7.13;;;3.92;;
22603;SDS011;11469;49.024;8.246;2023-03-29T04:56:56;7.78;;;3.97;;
22603;SDS011;11469;49.024;8.246;2023-03-29T04:59:21;6.03;;;3.50;;
22603;SDS011;11469;49.024;8.246;2023-03-29T05:01:47;7.45;;;3.72;;
22603;SDS011;11469;49.024;8.246;2023-03-29T05:04:12;9.07;;;3.22;;
22603;SDS011;11469;49.024;8.246;2023-03-29T05:06:38;9.32;;;4.45;;
22603;SDS011;11469;49.024;8.246;2023-03-29T05:09:04;6.57;;;3.78;;
22603;SDS011;11469;49.024;8.246;2023-03-29T05:11:30;7.15;;;3.38;;
22603;SDS011;11469;49.024;8.246;2023-03-29T05:13:56;6.70;;;3.45;;
22603;SDS011;11469;49.024;8.246;2023-03-29T05:16:26;6.80;;;3.20;;
22603;SDS011;11469;49.024;8.246;2023-03-29T05:18:54;10.35;;;3.90;;
22603;SDS011;11469;49.024;8.246;2023-03-29T05:21:20;9.07;;;3.70;;
22603;SDS011;11469;49.024;8.246;2023-03-29T05:23:46;6.15;;;3.90;;
22603;SDS011;11469;49.024;8.246;2023-03-29T05:26:12;5.60;;;3.22;;
22603;SDS011;11469;49.024;8.246;2023-03-29T05:28:39;10.15;;;5.00;;
22603;SDS011;11469;49.024;8.246;2023-03-29T05:31:05;9.45;;;3.85;;
22603;SDS011;11469;49.024;8.246;2023-03-29T05:33:30;7.28;;;3.80;;
22603;SDS011;11469;49.024;8.246;2023-03-29T05:36:00;8.23;;;3.05;;
22603;SDS011;11469;49.024;8.246;2023-03-29T05:38:27;8.60;;;3.47;;
22603;SDS011;11469;49.024;8.246;2023-03-29T05:40:54;5.90;;;3.35;;
22603;SDS011;11469;49.024;8.246;2023-03-29T05:43:20;7.95;;;3.63;;
22603;SDS011;11469;49.024;8.246;2023-03-29T05:45:46;8.00;;;3.33;;
22603;SDS011;11469;49.024;8.246;2023-03-29T05:48:11;8.70;;;4.00;;
22603;SDS011;11469;49.024;8.246;2023-03-29T05:50:37;8.85;;;3.83;;
22603;SDS011;11469;49.024;8.246;2023-03-29T05:53:02;5.93;;;3.88;;
22603;SDS011;11469;49.024;8.246;2023-03-29T05:55:28;10.18;;;4.45;;
22603;SDS011;11469;49.024;8.246;2023-03-29T05:57:54;11.30;;;5.10;;
22603;SDS011;11469;49.024;8.246;2023-03-29T06:00:20;13.38;;;5.65;;
22603;SDS011;11469;49.024;8.246;2023-03-29T06:02:49;16.13;;;7.55;;
22603;SDS011;11469;49.024;8.246;2023-03-29T06:05:20;19.27;;;6.78;;
22603;SDS011;11469;49.024;8.246;2023-03-29T06:07:46;16.30;;;7.85;;
22603;SDS011;11469;49.024;8.246;2023-03-29T06:10:13;15.10;;;8.05;;
22603;SDS011;11469;49.024;8.246;2023-03-29T06:12:39;18.65;;;8.52;;
22603;SDS011;11469;49.024;8.246;2023-03-29T06:15:06;16.33;;;7.30;;
22603;SDS011;11469;49.024;8.246;2023-03-29T06:17:32;12.32;;;4.90;;
22603;SDS011;11469;49.024;8.246;2023-03-29T06:19:58;6.40;;;3.47;;
22603;SDS011;11469;49.024;8.246;2023-03-29T06:22:24;10.38;;;3.72;;
22603;SDS011;11469;49.024;8.246;2023-03-29T06:24:50;4.63;;;3.03;;
22603;SDS011;11469;49.024;8.246;2023-03-29T06:27:16;7.38;;;3.42;;
22603;SDS011;11469;49.024;8.246;2023-03-29T06:29:41;6.15;;;3.13;;
22603;SDS011;11469;49.024;8.246;2023-03-29T06:32:07;9.20;;;3.80;;
22603;SDS011;11469;49.024;8.246;2023-03-29T06:34:32;7.03;;;3.05;;
22603;SDS011;11469;49.024;8.246;2023-03-29T06:36:58;7.18;;;3.95;;
22603;SDS011;11469;49.024;8.246;2023-03-29T06:39:24;7.97;;;3.50;;
22603;SDS011;11469;49.024;8.246;2023-03-29T06:41:50;9.20;;;4.47;;
22603;SDS011;11469;49.024;8.246;2023-03-29T06:44:16;7.97;;;4.55;;
22603;SDS011;11469;49.024;8.246;2023-03-29T06:46:41;8.30;;;4.30;;
22603;SDS011;11469;49.024;8.246;2023-03-29T06:49:07;29.30;;;7.72;;
22603;SDS011;11469;49.024;8.246;2023-03-29T06:51:32;32.40;;;13.98;;
22603;SDS011;11469;49.024;8.246;2023-03-29T06:53:58;11.40;;;5.13;;
22603;SDS011;11469;49.024;8.246;2023-03-29T06:56:23;8.00;;;4.05;;
22603;SDS011;11469;49.024;8.246;2023-03-29T06:58:49;9.05;;;4.28;;
22603;SDS011;11469;49.024;8.246;2023-03-29T07:01:15;8.50;;;4.20;;
22603;SDS011;11469;49.024;8.246;2023-03-29T07:03:40;7.03;;;4.10;;
22603;SDS011;11469;49.024;8.246;2023-03-29T07:06:07;9.68;;;4.40;;
22603;SDS011;11469;49.024;8.246;2023-03-29T07:08:39;10.68;;;5.47;;
22603;SDS011;11469;49.024;8.246;2023-03-29T07:11:12;14.75;;;5.60;;
22603;SDS011;11469;49.024;8.246;2023-03-29T07:13:39;16.52;;;4.95;;
22603;SDS011;11469;49.024;8.246;2023-03-29T07:16:06;11.30;;;4.45;;
22603;SDS011;11469;49.024;8.246;2023-03-29T07:18:36;9.40;;;4.30;;
22603;SDS011;11469;49.024;8.246;2023-03-29T07:21:03;10.65;;;4.70;;
22603;SDS011;11469;49.024;8.246;2023-03-29T07:23:30;11.57;;;4.97;;
22603;SDS011;11469;49.024;8.246;2023-03-29T07:25:55;14.10;;;5.00;;
22603;SDS011;11469;49.024;8.246;2023-03-29T07:28:20;16.38;;;4.72;;
22603;SDS011;11469;49.024;8.246;2023-03-29T07:30:46;11.45;;;5.32;;
22603;SDS011;11469;49.024;8.246;2023-03-29T07:33:11;14.57;;;5.60;;
22603;SDS011;11469;49.024;8.246;2023-03-29T07:35:37;10.65;;;5.43;;
22603;SDS011;11469;49.024;8.246;2023-03-29T07:38:03;14.93;;;6.70;;
22603;SDS011;11469;49.024;8.246;2023-03-29T07:40:29;14.07;;;6.40;;
22603;SDS011;11469;49.024;8.246;2023-03-29T07:42:55;10.82;;;5.72;;
22603;SDS011;11469;49.024;8.246;2023-03-29T07:45:22;9.68;;;5.22;;
22603;SDS011;11469;49.024;8.246;2023-03-29T07:47:52;8.77;;;5.47;;
22603;SDS011;11469;49.024;8.246;2023-03-29T07:50:18;11.00;;;5.22;;
22603;SDS011;11469;49.024;8.246;2023-03-29T07:52:44;11.68;;;5.25;;
22603;SDS011;11469;49.024;8.246;2023-03-29T07:55:10;13.38;;;6.10;;
22603;SDS011;11469;49.024;8.246;2023-03-29T07:57:37;11.65;;;5.45;;
22603;SDS011;11469;49.024;8.246;2023-03-29T08:00:04;12.85;;;5.22;;
22603;SDS011;11469;49.024;8.246;2023-03-29T08:02:38;13.07;;;5.90;;
22603;SDS011;11469;49.024;8.246;2023-03-29T08:05:04;9.32;;;4.28;;
22603;SDS011;11469;49.024;8.246;2023-03-29T08:07:30;13.68;;;5.07;;
22603;SDS011;11469;49.024;8.246;2023-03-29T08:09:56;12.10;;;4.57;;
22603;SDS011;11469;49.024;8.246;2023-03-29T08:12:21;8.40;;;4.30;;
22603;SDS011;11469;49.024;8.246;2023-03-29T08:14:47;12.45;;;4.30;;
22603;SDS011;11469;49.024;8.246;2023-03-29T08:17:12;10.73;;;4.30;;
22603;SDS011;11469;49.024;8.246;2023-03-29T08:19:37;13.30;;;4.45;;
22603;SDS011;11469;49.024;8.246;2023-03-29T08:22:03;7.65;;;4.43;;
22603;SDS011;11469;49.024;8.246;2023-03-29T08:24:28;13.02;;;4.55;;
22603;SDS011;11469;49.024;8.246;2023-03-29T08:26:54;13.15;;;4.57;;
22603;SDS011;11469;49.024;8.246;2023-03-29T08:29:19;11.57;;;4.20;;
22603;SDS011;11469;49.024;8.246;2023-03-29T08:31:46;12.88;;;4.40;;
22603;SDS011;11469;49.024;8.246;2023-03-29T08:34:12;9.50;;;4.60;;
22603;SDS011;11469;49.024;8.246;2023-03-29T08:36:37;11.93;;;4.45;;
22603;SDS011;11469;49.024;8.246;2023-03-29T08:39:04;14.85;;;4.22;;
22603;SDS011;11469;49.024;8.246;2023-03-29T08:47:15;9.25;;;3.72;;
22603;SDS011;11469;49.024;8.246;2023-03-29T08:49:52;15.63;;;4.07;;
22603;SDS011;11469;49.024;8.246;2023-03-29T08:55:29;9.15;;;4.13;;
22603;SDS011;11469;49.024;8.246;2023-03-29T08:57:57;12.43;;;4.78;;
22603;SDS011;11469;49.024;8.246;2023-03-29T09:03:25;10.55;;;3.63;;
22603;SDS011;11469;49.024;8.246;2023-03-29T09:05:59;9.10;;;3.75;;
22603;SDS011;11469;49.024;8.246;2023-03-29T09:08:28;8.75;;;4.15;;
22603;SDS011;11469;49.024;8.246;2023-03-29T09:22:01;12.70;;;3.65;;
22603;SDS011;11469;49.024;8.246;2023-03-29T09:32:53;13.88;;;3.58;;
22603;SDS011;11469;49.024;8.246;2023-03-29T09:37:52;14.82;;;3.55;;
22603;SDS011;11469;49.024;8.246;2023-03-29T09:40:37;5.50;;;2.95;;
22603;SDS011;11469;49.024;8.246;2023-03-29T09:43:07;9.35;;;3.75;;
22603;SDS011;11469;49.024;8.246;2023-03-29T09:45:37;6.57;;;3.40;;
22603;SDS011;11469;49.024;8.246;2023-03-29T09:48:07;7.20;;;3.67;;
22603;SDS011;11469;49.024;8.246;2023-03-29T09:53:10;9.35;;;3.15;;
22603;SDS011;11469;49.024;8.246;2023-03-29T09:55:37;6.70;;;3.70;;
22603;SDS011;11469;49.024;8.246;2023-03-29T10:00:51;7.38;;;2.70;;
22603;SDS011;11469;49.024;8.246;2023-03-29T10:03:26;4.97;;;2.60;;
22603;SDS011;11469;49.024;8.246;2023-03-29T10:05:54;3.28;;;2.03;;
22603;SDS011;11469;49.024;8.246;2023-03-29T10:08:27;7.68;;;2.33;;
22603;SDS011;11469;49.024;8.246;2023-03-29T10:10:57;7.72;;;3.13;;
22603;SDS011;11469;49.024;8.246;2023-03-29T10:13:27;5.13;;;2.38;;
22603;SDS011;11469;49.024;8.246;2023-03-29T10:18:31;10.20;;;2.38;;
22603;SDS011;11469;49.024;8.246;2023-03-29T10:21:01;5.95;;;2.08;;
22603;SDS011;11469;49.024;8.246;2023-03-29T10:23:29;5.55;;;2.00;;
22603;SDS011;11469;49.024;8.246;2023-03-29T10:25:58;12.30;;;2.83;;
22603;SDS011;11469;49.024;8.246;2023-03-29T10:28:26;7.95;;;2.10;;
22603;SDS011;11469;49.024;8.246;2023-03-29T10:30:53;5.57;;;2.30;;
22603;SDS011;11469;49.024;8.246;2023-03-29T10:33:20;6.28;;;2.33;;
22603;SDS011;11469;49.024;8.246;2023-03-29T10:35:48;6.38;;;2.60;;
22603;SDS011;11469;49.024;8.246;2023-03-29T10:38:18;3.90;;;2.08;;
22603;SDS011;11469;49.024;8.246;2023-03-29T10:40:47;7.35;;;2.17;;
22603;SDS011;11469;49.024;8.246;2023-03-29T10:45:41;7.05;;;2.28;;
22603;SDS011;11469;49.024;8.246;2023-03-29T10:48:09;4.32;;;1.90;;
22603;SDS011;11469;49.024;8.246;2023-03-29T10:50:37;4.68;;;2.05;;
22603;SDS011;11469;49.024;8.246;2023-03-29T10:53:05;5.57;;;1.70;;
22603;SDS011;11469;49.024;8.246;2023-03-29T10:55:45;9.55;;;2.15;;
22603;SDS011;11469;49.024;8.246;2023-03-29T10:58:24;7.05;;;2.25;;
22603;SDS011;11469;49.024;8.246;2023-03-29T11:01:00;3.53;;;1.90;;
22603;SDS011;11469;49.024;8.246;2023-03-29T11:03:36;5.90;;;2.17;;
22603;SDS011;11469;49.024;8.246;2023-03-29T11:06:18;7.60;;;2.22;;
22603;SDS011;11469;49.024;8.246;2023-03-29T11:09:01;7.93;;;2.00;;
22603;SDS011;11469;49.024;8.246;2023-03-29T11:14:21;7.75;;;1.95;;
22603;SDS011;11469;49.024;8.246;2023-03-29T11:16:53;4.25;;;1.80;;
22603;SDS011;11469;49.024;8.246;2023-03-29T11:22:08;5.32;;;2.05;;
22603;SDS011;11469;49.024;8.246;2023-03-29T11:32:40;3.92;;;1.88;;
22603;SDS011;11469;49.024;8.246;2023-03-29T11:37:58;5.05;;;1.67;;
22603;SDS011;11469;49.024;8.246;2023-03-29T11:43:10;6.17;;;2.00;;
22603;SDS011;11469;49.024;8.246;2023-03-29T11:45:47;5.53;;;2.10;;
22603;SDS011;11469;49.024;8.246;2023-03-29T11:48:19;5.38;;;1.70;;
22603;SDS011;11469;49.024;8.246;2023-03-29T11:50:50;9.35;;;2.15;;
22603;SDS011;11469;49.024;8.246;2023-03-29T11:53:25;8.50;;;1.75;;
22603;SDS011;11469;49.024;8.246;2023-03-29T11:56:00;3.72;;;1.92;;
22603;SDS011;11469;49.024;8.246;2023-03-29T11:58:36;6.85;;;1.88;;
22603;SDS011;11469;49.024;8.246;2023-03-29T12:01:09;6.25;;;2.28;;
22603;SDS011;11469;49.024;8.246;2023-03-29T12:03:39;6.53;;;2.40;;
22603;SDS011;11469;49.024;8.246;2023-03-29T12:06:37;5.93;;;2.10;;
22603;SDS011;11469;49.024;8.246;2023-03-29T12:09:22;7.10;;;2.20;;
22603;SDS011;11469;49.024;8.246;2023-03-29T12:17:37;5.07;;;2.20;;
22603;SDS011;11469;49.024;8.246;2023-03-29T12:22:36;6.22;;;2.38;;
22603;SDS011;11469;49.024;8.246;2023-03-29T12:25:02;8.88;;;2.20;;
22603;SDS011;11469;49.024;8.246;2023-03-29T12:27:38;6.30;;;2.25;;
22603;SDS011;11469;49.024;8.246;2023-03-29T12:30:28;9.80;;;2.30;;
22603;SDS011;11469;49.024;8.246;2023-03-29T12:38:26;7.15;;;1.85;;
22603;SDS011;11469;49.024;8.246;2023-03-29T12:40:55;7.00;;;2.20;;
22603;SDS011;11469;49.024;8.246;2023-03-29T12:43:36;3.22;;;1.60;;
22603;SDS011;11469;49.024;8.246;2023-03-29T12:48:32;17.48;;;1.77;;
22603;SDS011;11469;49.024;8.246;2023-03-29T12:51:06;7.50;;;2.05;;
22603;SDS011;11469;49.024;8.246;2023-03-29T12:53:41;4.10;;;1.00;;
22603;SDS011;11469;49.024;8.246;2023-03-29T12:56:13;4.20;;;1.48;;
22603;SDS011;11469;49.024;8.246;2023-03-29T13:01:38;3.60;;;1.30;;
22603;SDS011;11469;49.024;8.246;2023-03-29T13:04:17;4.53;;;1.35;;
22603;SDS011;11469;49.024;8.246;2023-03-29T13:09:47;2.78;;;1.23;;
22603;SDS011;11469;49.024;8.246;2023-03-29T13:14:40;3.40;;;1.20;;
22603;SDS011;11469;49.024;8.246;2023-03-29T13:17:10;9.05;;;1.50;;
22603;SDS011;11469;49.024;8.246;2023-03-29T13:22:57;5.82;;;1.50;;
22603;SDS011;11469;49.024;8.246;2023-03-29T13:36:00;5.93;;;1.50;;
22603;SDS011;11469;49.024;8.246;2023-03-29T13:38:30;5.32;;;1.63;;
22603;SDS011;11469;49.024;8.246;2023-03-29T13:41:03;14.90;;;2.20;;
22603;SDS011;11469;49.024;8.246;2023-03-29T13:43:35;4.57;;;1.45;;
22603;SDS011;11469;49.024;8.246;2023-03-29T13:46:18;7.60;;;1.40;;
22603;SDS011;11469;49.024;8.246;2023-03-29T13:51:42;4.85;;;1.60;;
22603;SDS011;11469;49.024;8.246;2023-03-29T13:54:31;7.72;;;1.58;;
22603;SDS011;11469;49.024;8.246;2023-03-29T13:57:08;4.40;;;1.65;;
22603;SDS011;11469;49.024;8.246;2023-03-29T13:59:59;4.55;;;1.48;;
22603;SDS011;11469;49.024;8.246;2023-03-29T14:02:57;3.72;;;1.38;;
22603;SDS011;11469;49.024;8.246;2023-03-29T14:05:27;4.35;;;1.23;;
22603;SDS011;11469;49.024;8.246;2023-03-29T14:07:56;2.63;;;1.40;;
22603;SDS011;11469;49.024;8.246;2023-03-29T14:10:25;6.93;;;1.30;;
22603;SDS011;11469;49.024;8.246;2023-03-29T14:12:57;4.57;;;1.50;;
22603;SDS011;11469;49.024;8.246;2023-03-29T14:15:26;6.70;;;1.77;;
22603;SDS011;11469;49.024;8.246;2023-03-29T14:18:02;6.25;;;1.15;;
22603;SDS011;11469;49.024;8.246;2023-03-29T14:20:28;4.32;;;1.65;;
22603;SDS011;11469;49.024;8.246;2023-03-29T14:22:55;4.90;;;1.65;;
22603;SDS011;11469;49.024;8.246;2023-03-29T14:25:21;4.57;;;1.75;;
22603;SDS011;11469;49.024;8.246;2023-03-29T14:27:47;5.55;;;1.40;;
22603;SDS011;11469;49.024;8.246;2023-03-29T14:30:16;8.90;;;1.95;;
22603;SDS011;11469;49.024;8.246;2023-03-29T14:32:44;8.48;;;1.80;;
22603;SDS011;11469;49.024;8.246;2023-03-29T14:35:09;10.90;;;1.65;;
22603;SDS011;11469;49.024;8.246;2023-03-29T14:37:35;8.40;;;1.73;;
22603;SDS011;11469;49.024;8.246;2023-03-29T14:40:00;6.85;;;2.28;;
22603;SDS011;11469;49.024;8.246;2023-03-29T14:42:26;4.13;;;1.25;;
22603;SDS011;11469;49.024;8.246;2023-03-29T14:44:56;2.80;;;1.25;;
22603;SDS011;11469;49.024;8.246;2023-03-29T14:47:26;10.07;;;1.48;;
22603;SDS011;11469;49.024;8.246;2023-03-29T14:49:54;6.82;;;1.83;;
22603;SDS011;11469;49.024;8.246;2023-03-29T14:52:24;8.90;;;1.75;;
22603;SDS011;11469;49.024;8.246;2023-03-29T14:54:52;9.70;;;1.60;;
22603;SDS011;11469;49.024;8.246;2023-03-29T14:57:22;7.20;;;1.85;;
22603;SDS011;11469;49.024;8.246;2023-03-29T14:59:53;4.60;;;1.83;;
22603;SDS011;11469;49.024;8.246;2023-03-29T15:02:29;3.72;;;1.38;;
22603;SDS011;11469;49.024;8.246;2023-03-29T15:04:57;4.27;;;1.60;;
22603;SDS011;11469;49.024;8.246;2023-03-29T15:07:27;5.32;;;1.95;;
22603;SDS011;11469;49.024;8.246;2023-03-29T15:09:54;7.60;;;1.90;;
22603;SDS011;11469;49.024;8.246;2023-03-29T15:12:21;8.15;;;2.20;;
22603;SDS011;11469;49.024;8.246;2023-03-29T15:14:50;5.72;;;1.90;;
22603;SDS011;11469;49.024;8.246;2023-03-29T15:17:33;4.05;;;1.85;;
22603;SDS011;11469;49.024;8.246;2023-03-29T15:20:03;5.55;;;1.83;;
22603;SDS011;11469;49.024;8.246;2023-03-29T15:22:56;10.82;;;2.65;;
22603;SDS011;11469;49.024;8.246;2023-03-29T15:25:35;4.47;;;1.98;;
22603;SDS011;11469;49.024;8.246;2023-03-29T15:28:02;4.95;;;1.70;;
22603;SDS011;11469;49.024;8.246;2023-03-29T15:30:33;6.57;;;1.80;;
22603;SDS011;11469;49.024;8.246;2023-03-29T15:33:12;9.20;;;1.90;;
22603;SDS011;11469;49.024;8.246;2023-03-29T15:35:48;6.43;;;1.80;;
22603;SDS011;11469;49.024;8.246;2023-03-29T15:38:15;4.50;;;2.03;;
22603;SDS011;11469;49.024;8.246;2023-03-29T15:40:41;14.30;;;2.10;;
22603;SDS011;11469;49.024;8.246;2023-03-29T15:43:07;6.45;;;2.35;;
22603;SDS011;11469;49.024;8.246;2023-03-29T15:45:32;5.25;;;1.95;;
22603;SDS011;11469;49.024;8.246;2023-03-29T15:47:57;21.73;;;4.10;;
22603;SDS011;11469;49.024;8.246;2023-03-29T15:50:26;6.03;;;2.20;;
22603;SDS011;11469;49.024;8.246;2023-03-29T15:52:51;8.60;;;2.10;;
22603;SDS011;11469;49.024;8.246;2023-03-29T15:55:20;7.82;;;2.90;;
22603;SDS011;11469;49.024;8.246;2023-03-29T15:57:45;6.60;;;2.00;;
22603;SDS011;11469;49.024;8.246;2023-03-29T16:00:12;5.30;;;1.70;;
22603;SDS011;11469;49.024;8.246;2023-03-29T16:02:40;5.80;;;1.70;;
22603;SDS011;11469;49.024;8.246;2023-03-29T16:05:05;10.40;;;2.30;;
22603;SDS011;11469;49.024;8.246;2023-03-29T16:07:31;6.05;;;1.98;;
22603;SDS011;11469;49.024;8.246;2023-03-29T16:09:57;8.85;;;2.42;;
22603;SDS011;11469;49.024;8.246;2023-03-29T16:12:22;6.43;;;2.55;;
22603;SDS011;11469;49.024;8.246;2023-03-29T16:14:47;14.43;;;2.92;;
22603;SDS011;11469;49.024;8.246;2023-03-29T16:17:13;5.72;;;2.55;;
22603;SDS011;11469;49.024;8.246;2023-03-29T16:19:39;6.85;;;2.97;;
22603;SDS011;11469;49.024;8.246;2023-03-29T16:22:05;9.13;;;4.13;;
22603;SDS011;11469;49.024;8.246;2023-03-29T16:24:31;6.90;;;3.40;;
22603;SDS011;11469;49.024;8.246;2023-03-29T16:26:58;4.22;;;2.78;;
22603;SDS011;11469;49.024;8.246;2023-03-29T16:29:25;6.90;;;2.80;;
22603;SDS011;11469;49.024;8.246;2023-03-29T16:31:51;7.43;;;2.75;;
22603;SDS011;11469;49.024;8.246;2023-03-29T16:34:17;8.80;;;3.47;;
22603;SDS011;11469;49.024;8.246;2023-03-29T16:36:44;28.42;;;6.55;;
22603;SDS011;11469;49.024;8.246;2023-03-29T16:39:10;20.98;;;9.65;;
22603;SDS011;11469;49.024;8.246;2023-03-29T16:41:37;15.18;;;5.95;;
22603;SDS011;11469;49.024;8.246;2023-03-29T16:44:03;8.45;;;4.05;;
22603;SDS011;11469;49.024;8.246;2023-03-29T16:46:29;21.02;;;9.18;;
22603;SDS011;11469;49.024;8.246;2023-03-29T16:48:55;14.98;;;6.40;;
22603;SDS011;11469;49.024;8.246;2023-03-29T16:51:22;13.65;;;4.60;;
22603;SDS011;11469;49.024;8.246;2023-03-29T16:53:48;10.25;;;4.60;;
22603;SDS011;11469;49.024;8.246;2023-03-29T16:56:17;10.00;;;5.03;;